Wetterdaten: Woche 25.02.02 - 03.03.02 (KW9)
Datum Zeit Temperatur Luftfeuchte Luftdruck Regenmenge Wind Richtung Taupunkt Windchill
25.02.2002 00:00 1.7 C 87 % 1015.9 hPa 0.9 l/m 11.1 km/h (2 Bft) SW -0.2 C -1.3 C
25.02.2002 01:00 1.7 C 88 % 1015.2 hPa 1.2 l/m 12.7 km/h (3 Bft) W -0.1 C -1.6 C
25.02.2002 02:00 1.3 C 87 % 1014.7 hPa 1.8 l/m 5.9 km/h (2 Bft) W-SW -0.6 C -0.2 C
25.02.2002 03:00 1.4 C 90 % 1014.5 hPa 1.5 l/m 2.5 km/h (1 Bft) SW 0.0 C 1.1 C
25.02.2002 04:00 2.0 C 92 % 1013.6 hPa 1.8 l/m 6.2 km/h (2 Bft) S 0.9 C 0.4 C
25.02.2002 05:00 2.3 C 93 % 1013.6 hPa 1.5 l/m 12.8 km/h (3 Bft) S-SO 1.2 C -1.1 C
25.02.2002 06:00 2.8 C 91 % 1013.6 hPa 0.6 l/m 13.3 km/h (3 Bft) S-SW 1.4 C -0.5 C
25.02.2002 07:00 3.0 C 88 % 1014.2 hPa 1.2 l/m 16.0 km/h (3 Bft) S 1.1 C -0.8 C
25.02.2002 08:00 3.4 C 90 % 1014.7 hPa 2.1 l/m 13.7 km/h (3 Bft) S 1.9 C 0.1 C
25.02.2002 09:00 4.0 C 87 % 1014.7 hPa 2.1 l/m 10.9 km/h (2 Bft) S 2.0 C 1.4 C
25.02.2002 10:00 4.6 C 85 % 1014.7 hPa 1.5 l/m 11.9 km/h (2 Bft) W-SW 2.3 C 2.1 C
25.02.2002 11:00 5.5 C 82 % 1014.7 hPa 1.5 l/m 13.0 km/h (3 Bft) SW 2.6 C 2.9 C
25.02.2002 12:00 5.9 C 82 % 1014.7 hPa 1.8 l/m 8.3 km/h (2 Bft) S 3.1 C 4.3 C
25.02.2002 13:00 6.6 C 82 % 1014.7 hPa 1.2 l/m 7.4 km/h (2 Bft) SW 3.7 C 5.2 C
25.02.2002 14:00 6.8 C 81 % 1014.7 hPa 1.5 l/m 10.5 km/h (2 Bft) SW 3.7 C 5.0 C
25.02.2002 15:00 6.8 C 79 % 1014.7 hPa 0.9 l/m 7.5 km/h (2 Bft) W 3.5 C 5.5 C
25.02.2002 16:00 6.7 C 85 % 1014.8 hPa 0.3 l/m 10.7 km/h (2 Bft) W 4.4 C 4.7 C
25.02.2002 17:00 6.4 C 86 % 1015.7 hPa 0.3 l/m 4.7 km/h (1 Bft) W 4.3 C 5.7 C
25.02.2002 18:00 6.1 C 86 % 1015.7 hPa 0.0 l/m 0.4 km/h (0 Bft) S-SO 4.0 C 6.1 C
25.02.2002 19:00 6.2 C 84 % 1015.7 hPa 0.0 l/m 1.8 km/h (1 Bft) S 3.7 C 6.0 C
25.02.2002 20:00 6.6 C 83 % 1014.7 hPa 0.3 l/m 4.8 km/h (1 Bft) S-SO 3.9 C 5.8 C
25.02.2002 21:00 5.8 C 87 % 1014.7 hPa 0.0 l/m 0.0 km/h (0 Bft) N 3.8 C 5.8 C
25.02.2002 22:00 5.2 C 91 % 1014.4 hPa 0.0 l/m 0.0 km/h (0 Bft) W 3.8 C 5.2 C
25.02.2002 23:00 5.5 C 90 % 1013.6 hPa 0.0 l/m 0.6 km/h (0 Bft) O-SO 3.9 C 5.4 C
26.02.2002 00:00 5.7 C 86 % 1013.6 hPa 0.0 l/m 7.8 km/h (2 Bft) SO 3.6 C 4.2 C
26.02.2002 01:00 5.6 C 85 % 1013.1 hPa 0.0 l/m 0.4 km/h (0 Bft) O 3.2 C 5.5 C
26.02.2002 02:00 4.7 C 89 % 1012.6 hPa 0.0 l/m 0.3 km/h (0 Bft) NO 3.1 C 4.6 C
26.02.2002 03:00 4.6 C 93 % 1011.8 hPa 0.3 l/m 0.1 km/h (0 Bft) SO 3.5 C 4.6 C
26.02.2002 04:00 5.1 C 93 % 1011.4 hPa 0.0 l/m 2.9 km/h (1 Bft) SW 4.0 C 4.6 C
26.02.2002 05:00 6.0 C 84 % 1010.5 hPa 0.0 l/m 8.2 km/h (2 Bft) S-SO 3.4 C 4.4 C
26.02.2002 06:00 6.6 C 77 % 1010.5 hPa 0.0 l/m 10.7 km/h (2 Bft) SO 2.9 C 4.7 C
26.02.2002 07:00 6.7 C 74 % 1010.5 hPa 0.0 l/m 10.9 km/h (2 Bft) SO 2.5 C 4.7 C
26.02.2002 08:00 7.3 C 70 % 1010.3 hPa 0.0 l/m 11.8 km/h (2 Bft) S-SO 2.2 C 5.3 C
26.02.2002 09:00 8.4 C 63 % 1010.4 hPa 0.0 l/m 8.3 km/h (2 Bft) W-NW 1.7 C 7.2 C
26.02.2002 10:00 11.0 C 50 % 1010.5 hPa 0.0 l/m 28.9 km/h (5 Bft) W-NW 0.9 C 11.0 C
26.02.2002 11:00 12.1 C 42 % 1010.5 hPa 0.0 l/m 37.0 km/h (5 Bft) W-NW -0.4 C 12.1 C
26.02.2002 12:00 12.5 C 42 % 1010.5 hPa 0.0 l/m 25.4 km/h (4 Bft) W-NW -0.2 C 12.5 C
26.02.2002 13:00 9.8 C 67 % 1010.8 hPa 0.6 l/m 28.6 km/h (4 Bft) W-NW 3.8 C 7.5 C
26.02.2002 14:00 9.0 C 74 % 1010.8 hPa 0.3 l/m 30.4 km/h (5 Bft) W-NW 4.5 C 5.3 C
26.02.2002 15:00 10.1 C 66 % 1010.2 hPa 0.3 l/m 23.8 km/h (4 Bft) W-NW 4.0 C 8.7 C
26.02.2002 16:00 10.6 C 60 % 1010.3 hPa 0.0 l/m 28.0 km/h (4 Bft) W-NW 3.2 C 10.6 C
26.02.2002 17:00 10.4 C 63 % 1010.2 hPa 0.0 l/m 29.0 km/h (5 Bft) W 3.7 C 10.4 C
26.02.2002 18:00 10.2 C 64 % 1010.5 hPa 0.0 l/m 17.5 km/h (3 Bft) W 3.6 C 10.0 C
26.02.2002 19:00 10.6 C 62 % 1010.5 hPa 0.0 l/m 25.5 km/h (4 Bft) W-NW 3.7 C 10.6 C
26.02.2002 20:00 11.2 C 60 % 1010.5 hPa 0.0 l/m 27.5 km/h (4 Bft) W-NW 3.7 C 11.2 C
26.02.2002 21:00 11.1 C 61 % 1009.7 hPa 0.0 l/m 28.9 km/h (5 Bft) W-NW 3.9 C 11.1 C
26.02.2002 22:00 11.0 C 62 % 1009.4 hPa 0.0 l/m 26.9 km/h (4 Bft) W-NW 4.0 C 11.0 C
26.02.2002 23:00 9.1 C 79 % 1009.1 hPa 0.9 l/m 19.1 km/h (3 Bft) W-NW 5.5 C 6.4 C
27.02.2002 00:00 8.7 C 83 % 1008.7 hPa 0.6 l/m 17.7 km/h (3 Bft) W-NW 6.0 C 6.0 C
27.02.2002 01:00 8.4 C 86 % 1008.4 hPa 0.6 l/m 16.4 km/h (3 Bft) W-NW 6.2 C 6.0 C
27.02.2002 02:00 8.2 C 88 % 1007.9 hPa 1.2 l/m 5.5 km/h (1 Bft) W-NW 6.4 C 7.4 C
27.02.2002 03:00 8.0 C 91 % 1007.3 hPa 0.6 l/m 7.1 km/h (2 Bft) W 6.6 C 6.9 C
27.02.2002 04:00 8.3 C 87 % 1007.7 hPa 2.7 l/m 25.5 km/h (4 Bft) W-NW 6.2 C 4.8 C
27.02.2002 05:00 7.8 C 91 % 1008.4 hPa 2.1 l/m 20.1 km/h (4 Bft) W-NW 6.4 C 4.8 C
27.02.2002 06:00 7.8 C 93 % 1008.4 hPa 1.2 l/m 11.1 km/h (2 Bft) NW 6.6 C 6.2 C
27.02.2002 07:00 8.3 C 85 % 1008.4 hPa 0.0 l/m 25.5 km/h (4 Bft) W-NW 5.9 C 4.8 C
27.02.2002 08:00 9.0 C 75 % 1008.9 hPa 0.0 l/m 27.3 km/h (4 Bft) W-NW 4.8 C 5.6 C
27.02.2002 09:00 9.8 C 64 % 1009.4 hPa 0.0 l/m 22.4 km/h (4 Bft) W-NW 3.3 C 7.4 C
27.02.2002 10:00 10.0 C 59 % 1009.4 hPa 0.0 l/m 17.6 km/h (3 Bft) W-NW 2.3 C 9.2 C
27.02.2002 11:00 10.7 C 58 % 1009.4 hPa 0.0 l/m 16.2 km/h (3 Bft) W-NW 2.8 C 10.7 C
27.02.2002 12:00 10.8 C 57 % 1009.4 hPa 0.3 l/m 32.2 km/h (5 Bft) W-NW 2.5 C 9.7 C
27.02.2002 13:00 8.0 C 67 % 1010.2 hPa 0.0 l/m 30.8 km/h (5 Bft) NW 2.4 C 4.0 C
27.02.2002 14:00 7.4 C 69 % 1010.5 hPa 0.0 l/m 27.0 km/h (4 Bft) NW 2.0 C 3.4 C
27.02.2002 15:00 6.5 C 72 % 1010.1 hPa 0.0 l/m 25.2 km/h (4 Bft) NW 1.8 C 2.4 C
27.02.2002 16:00 5.7 C 76 % 1009.5 hPa 0.0 l/m 14.3 km/h (3 Bft) W-NW 1.7 C 3.0 C
27.02.2002 17:00 5.3 C 77 % 1009.4 hPa 0.0 l/m 8.4 km/h (2 Bft) NW 1.6 C 3.6 C
27.02.2002 18:00 5.1 C 82 % 1008.8 hPa 0.6 l/m 3.5 km/h (1 Bft) O-SO 2.2 C 4.4 C
27.02.2002 19:00 4.7 C 90 % 1008.4 hPa 2.7 l/m 1.3 km/h (1 Bft) O-SO 3.1 C 4.6 C
27.02.2002 20:00 4.6 C 93 % 1007.7 hPa 3.6 l/m 3.8 km/h (1 Bft) O-SO 3.5 C 3.7 C
27.02.2002 21:00 4.5 C 94 % 1007.4 hPa 1.2 l/m 4.1 km/h (1 Bft) SO 3.6 C 3.6 C
27.02.2002 22:00 4.6 C 95 % 1006.7 hPa 3.6 l/m 6.3 km/h (2 Bft) W-NW 3.9 C 3.4 C
27.02.2002 23:00 5.9 C 91 % 1007.3 hPa 1.5 l/m 28.8 km/h (5 Bft) NW 4.6 C 1.4 C
28.02.2002 00:00 6.1 C 89 % 1007.3 hPa 0.0 l/m 18.3 km/h (3 Bft) W-NW 4.5 C 2.9 C
28.02.2002 01:00 6.1 C 88 % 1007.8 hPa 0.6 l/m 24.0 km/h (4 Bft) NW 4.3 C 2.3 C
28.02.2002 02:00 4.8 C 89 % 1008.7 hPa 0.6 l/m 31.7 km/h (5 Bft) NW 3.2 C -0.3 C
28.02.2002 03:00 4.1 C 89 % 1009.4 hPa 0.3 l/m 26.3 km/h (4 Bft) NW 2.5 C -0.7 C
28.02.2002 04:00 3.7 C 90 % 1009.4 hPa 1.5 l/m 21.6 km/h (4 Bft) W-NW 2.2 C -0.7 C
28.02.2002 05:00 3.6 C 90 % 1009.4 hPa 0.6 l/m 23.6 km/h (4 Bft) W-NW 2.1 C -1.0 C
28.02.2002 06:00 3.6 C 90 % 1010.1 hPa 1.2 l/m 29.6 km/h (5 Bft) W-NW 2.1 C -1.8 C
28.02.2002 07:00 3.5 C 89 % 1010.5 hPa 0.3 l/m 20.1 km/h (4 Bft) W-NW 1.8 C -0.3 C
28.02.2002 08:00 3.9 C 89 % 1010.8 hPa 0.0 l/m 6.9 km/h (2 Bft) NW 2.2 C 2.5 C
28.02.2002 09:00 4.7 C 81 % 1011.5 hPa 0.0 l/m 15.6 km/h (3 Bft) NW 1.6 C 1.4 C
28.02.2002 10:00 6.4 C 63 % 1011.5 hPa 0.0 l/m 17.1 km/h (3 Bft) W-NW -0.2 C 3.4 C
28.02.2002 11:00 7.5 C 53 % 1011.5 hPa 0.0 l/m 30.9 km/h (5 Bft) NW -1.4 C 3.3 C
28.02.2002 12:00 8.5 C 44 % 1011.3 hPa 0.0 l/m 36.0 km/h (5 Bft) NW -3.0 C 4.2 C
28.02.2002 13:00 9.4 C 42 % 1010.5 hPa 0.0 l/m 39.3 km/h (6 Bft) NW -2.8 C 5.3 C
28.02.2002 14:00 10.1 C 34 % 1010.5 hPa 0.0 l/m 33.9 km/h (5 Bft) NW -5.2 C 6.9 C
28.02.2002 15:00 10.2 C 31 % 1010.5 hPa 0.0 l/m 38.5 km/h (5 Bft) NW -6.4 C 8.4 C
28.02.2002 16:00 9.5 C 37 % 1010.5 hPa 0.0 l/m 32.2 km/h (5 Bft) NW -4.5 C 5.8 C
28.02.2002 17:00 8.7 C 41 % 1010.8 hPa 0.0 l/m 23.6 km/h (4 Bft) NW -3.8 C 5.5 C
28.02.2002 18:00 6.6 C 49 % 1011.5 hPa 0.0 l/m 6.5 km/h (2 Bft) W-NW -3.3 C 5.7 C
28.02.2002 19:00 4.9 C 57 % 1011.5 hPa 0.0 l/m 0.3 km/h (0 Bft) SO -2.9 C 4.9 C
28.02.2002 20:00 3.3 C 63 % 1011.6 hPa 0.0 l/m 2.8 km/h (1 Bft) O-SO -3.1 C 2.7 C
28.02.2002 21:00 2.0 C 73 % 1012.6 hPa 0.0 l/m 3.2 km/h (1 Bft) O-SO -2.4 C 1.5 C
28.02.2002 22:00 1.1 C 80 % 1012.6 hPa 0.0 l/m 0.9 km/h (0 Bft) O-SO -2.0 C 0.9 C
28.02.2002 23:00 1.2 C 82 % 1012.6 hPa 0.0 l/m 0.0 km/h (0 Bft) N -1.6 C 1.2 C
01.03.2002 00:00 1.4 C 84 % 1012.6 hPa 0.0 l/m 0.0 km/h (0 Bft) N -1.1 C 1.4 C
01.03.2002 01:00 1.6 C 82 % 1012.6 hPa 0.0 l/m 0.3 km/h (0 Bft) O-SO -1.0 C 1.6 C
01.03.2002 02:00 1.9 C 84 % 1012.6 hPa 0.0 l/m 2.3 km/h (1 Bft) O-SO -0.5 C 1.4 C
01.03.2002 03:00 2.6 C 81 % 1012.6 hPa 0.0 l/m 2.6 km/h (1 Bft) O-SO -0.3 C 2.0 C
01.03.2002 04:00 3.1 C 84 % 1012.6 hPa 0.0 l/m 1.0 km/h (0 Bft) O-SO 0.6 C 2.9 C
01.03.2002 05:00 3.2 C 85 % 1013.1 hPa 0.0 l/m 1.0 km/h (0 Bft) O-SO 0.9 C 3.0 C
01.03.2002 06:00 2.8 C 86 % 1013.6 hPa 0.0 l/m 3.4 km/h (1 Bft) SO 0.7 C 2.0 C
01.03.2002 07:00 2.3 C 84 % 1013.6 hPa 0.0 l/m 1.6 km/h (1 Bft) O-SO -0.2 C 2.1 C
01.03.2002 08:00 3.0 C 79 % 1013.6 hPa 0.0 l/m 0.0 km/h (0 Bft) N -0.2 C 3.0 C
01.03.2002 09:00 4.2 C 75 % 1013.6 hPa 0.0 l/m 1.0 km/h (0 Bft) O-SO 0.0 C 4.1 C
01.03.2002 10:00 6.1 C 64 % 1013.6 hPa 0.0 l/m 0.8 km/h (0 Bft) O-SO -0.2 C 6.0 C
01.03.2002 11:00 7.6 C 55 % 1013.2 hPa 0.0 l/m 1.9 km/h (1 Bft) W-NW -1.0 C 7.4 C
01.03.2002 12:00 8.6 C 52 % 1012.6 hPa 0.0 l/m 0.8 km/h (0 Bft) NW -0.6 C 8.6 C
01.03.2002 13:00 9.3 C 51 % 1011.7 hPa 0.0 l/m 2.0 km/h (1 Bft) O-SO -0.4 C 9.2 C
01.03.2002 14:00 9.2 C 50 % 1011.5 hPa 0.0 l/m 1.8 km/h (1 Bft) O-SO -0.7 C 9.0 C
01.03.2002 15:00 8.8 C 52 % 1011.5 hPa 0.0 l/m 2.6 km/h (1 Bft) O-SO -0.6 C 8.6 C
01.03.2002 16:00 8.5 C 51 % 1010.5 hPa 0.0 l/m 1.0 km/h (0 Bft) NW -1.2 C 8.4 C
01.03.2002 17:00 6.7 C 69 % 1010.5 hPa 0.0 l/m 0.3 km/h (0 Bft) N-NW 1.3 C 6.7 C
01.03.2002 18:00 5.5 C 82 % 1010.6 hPa 0.6 l/m 0.0 km/h (0 Bft) N 2.7 C 5.5 C
01.03.2002 19:00 5.0 C 86 % 1011.5 hPa 0.9 l/m 0.7 km/h (0 Bft) O-SO 2.8 C 4.8 C
01.03.2002 20:00 4.7 C 90 % 1011.5 hPa 1.5 l/m 0.0 km/h (0 Bft) N 3.2 C 4.7 C
01.03.2002 21:00 4.6 C 92 % 1011.5 hPa 1.5 l/m 0.0 km/h (0 Bft) N 3.4 C 4.6 C
01.03.2002 22:00 4.2 C 92 % 1011.5 hPa 1.5 l/m 0.1 km/h (0 Bft) N 3.0 C 4.2 C
01.03.2002 23:00 4.0 C 90 % 1011.5 hPa 1.8 l/m 0.9 km/h (0 Bft) O 2.5 C 3.8 C
02.03.2002 00:00 3.7 C 90 % 1011.5 hPa 1.8 l/m 1.3 km/h (1 Bft) SO 2.2 C 3.5 C
02.03.2002 01:00 3.7 C 91 % 1011.5 hPa 1.2 l/m 0.0 km/h (0 Bft) N 2.3 C 3.7 C
02.03.2002 02:00 3.7 C 90 % 1011.1 hPa 2.4 l/m 0.0 km/h (0 Bft) N 2.3 C 3.7 C
02.03.2002 03:00 3.3 C 92 % 1010.3 hPa 3.6 l/m 1.3 km/h (1 Bft) O-SO 2.2 C 3.1 C
02.03.2002 04:00 3.0 C 91 % 1009.5 hPa 2.4 l/m 0.4 km/h (0 Bft) N 1.7 C 3.0 C
02.03.2002 05:00 2.7 C 90 % 1010.5 hPa 2.4 l/m 0.2 km/h (0 Bft) N 1.3 C 2.7 C
02.03.2002 06:00 2.3 C 91 % 1011.5 hPa 1.5 l/m 0.0 km/h (0 Bft) N 0.9 C 2.3 C
02.03.2002 07:00 2.0 C 91 % 1011.5 hPa 0.6 l/m 1.0 km/h (0 Bft) SO 0.7 C 2.0 C
02.03.2002 08:00 1.9 C 92 % 1012.5 hPa 0.3 l/m 0.0 km/h (0 Bft) N 0.7 C 1.9 C
02.03.2002 09:00 2.0 C 91 % 1013.0 hPa 0.0 l/m 0.7 km/h (0 Bft) SO 0.8 C 1.9 C
02.03.2002 10:00 2.3 C 88 % 1013.6 hPa 0.0 l/m 0.8 km/h (0 Bft) SO 0.6 C 2.3 C
02.03.2002 11:00 2.7 C 87 % 1013.6 hPa 0.0 l/m 0.6 km/h (0 Bft) O-SO 0.7 C 2.6 C
02.03.2002 12:00 2.8 C 87 % 1013.5 hPa 0.0 l/m 0.0 km/h (0 Bft) N 0.8 C 2.8 C
02.03.2002 13:00 3.1 C 85 % 1013.0 hPa 0.0 l/m 0.1 km/h (0 Bft) N 0.9 C 3.1 C
02.03.2002 14:00 3.8 C 83 % 1012.6 hPa 0.0 l/m 0.1 km/h (0 Bft) N 1.3 C 3.8 C
02.03.2002 15:00 4.1 C 83 % 1013.1 hPa 0.0 l/m 1.2 km/h (1 Bft) W-SW 1.5 C 3.9 C
02.03.2002 16:00 4.2 C 82 % 1012.6 hPa 0.0 l/m 3.5 km/h (1 Bft) W-NW 1.5 C 3.6 C
02.03.2002 17:00 4.1 C 82 % 1012.6 hPa 0.0 l/m 1.6 km/h (1 Bft) W 1.3 C 3.9 C
02.03.2002 18:00 3.8 C 84 % 1013.4 hPa 0.0 l/m 0.0 km/h (0 Bft) N 1.3 C 3.8 C
02.03.2002 19:00 3.5 C 86 % 1013.6 hPa 0.0 l/m 0.0 km/h (0 Bft) N 1.4 C 3.5 C
02.03.2002 20:00 3.4 C 87 % 1013.1 hPa 0.0 l/m 0.0 km/h (0 Bft) N 1.5 C 3.4 C
02.03.2002 21:00 3.4 C 89 % 1013.5 hPa 0.0 l/m 0.0 km/h (0 Bft) N 1.7 C 3.4 C
02.03.2002 22:00 3.3 C 89 % 1014.0 hPa 0.0 l/m 0.0 km/h (0 Bft) N 1.6 C 3.3 C
02.03.2002 23:00 3.2 C 90 % 1014.7 hPa 0.0 l/m 0.0 km/h (0 Bft) N 1.7 C 3.2 C
03.03.2002 00:00 3.2 C 90 % 1014.7 hPa 0.0 l/m 0.0 km/h (0 Bft) N 1.8 C 3.2 C
03.03.2002 01:00 3.1 C 91 % 1014.7 hPa 0.0 l/m 0.0 km/h (0 Bft) N 1.8 C 3.1 C
03.03.2002 02:00 3.0 C 91 % 1014.7 hPa 0.0 l/m 0.0 km/h (0 Bft) N 1.7 C 3.0 C
03.03.2002 03:00 2.8 C 90 % 1014.7 hPa 0.0 l/m 0.1 km/h (0 Bft) N 1.4 C 2.8 C
03.03.2002 04:00 2.4 C 92 % 1015.6 hPa 0.0 l/m 0.2 km/h (0 Bft) W 1.3 C 2.4 C
03.03.2002 05:00 2.2 C 91 % 1016.8 hPa 0.0 l/m 0.0 km/h (0 Bft) N 0.9 C 2.2 C
03.03.2002 06:00 2.3 C 88 % 1017.8 hPa 0.0 l/m 0.2 km/h (0 Bft) N-NW 0.6 C 2.3 C
03.03.2002 07:00 2.1 C 85 % 1018.6 hPa 0.0 l/m 0.7 km/h (0 Bft) W-NW -0.2 C 2.0 C
03.03.2002 08:00 2.3 C 83 % 1019.4 hPa 0.0 l/m 0.5 km/h (0 Bft) W-NW -0.3 C 2.2 C
03.03.2002 09:00 2.5 C 82 % 1019.9 hPa 0.0 l/m 0.5 km/h (0 Bft) NW -0.2 C 2.5 C
03.03.2002 10:00 2.7 C 80 % 1020.8 hPa 0.0 l/m 4.0 km/h (1 Bft) NW -0.4 C 1.7 C
03.03.2002 11:00 3.4 C 76 % 1020.9 hPa 0.0 l/m 3.4 km/h (1 Bft) W-NW -0.4 C 2.7 C
03.03.2002 12:00 4.6 C 68 % 1020.9 hPa 0.0 l/m 1.2 km/h (1 Bft) NW -0.8 C 4.4 C
03.03.2002 13:00 5.2 C 65 % 1020.1 hPa 0.0 l/m 3.4 km/h (1 Bft) W-NW -0.9 C 4.6 C
03.03.2002 14:00 6.7 C 61 % 1018.9 hPa 0.0 l/m 4.4 km/h (1 Bft) NW -0.4 C 6.0 C
03.03.2002 15:00 6.6 C 59 % 1018.9 hPa 0.0 l/m 4.3 km/h (1 Bft) N-NW -0.7 C 6.0 C
03.03.2002 16:00 6.4 C 61 % 1018.8 hPa 0.0 l/m 10.4 km/h (2 Bft) NW -0.6 C 4.3 C
03.03.2002 17:00 5.0 C 66 % 1019.0 hPa 0.0 l/m 4.5 km/h (1 Bft) NW -0.7 C 4.2 C
03.03.2002 18:00 2.9 C 76 % 1019.8 hPa 0.0 l/m 0.0 km/h (0 Bft) N -1.0 C 2.9 C
03.03.2002 19:00 1.7 C 82 % 1020.0 hPa 0.0 l/m 0.0 km/h (0 Bft) O-NO -1.1 C 1.7 C
03.03.2002 20:00 0.1 C 88 % 1020.9 hPa 0.0 l/m 1.2 km/h (1 Bft) O-SO -1.6 C -0.3 C
03.03.2002 21:00 -0.7 C 90 % 1021.9 hPa 0.0 l/m 0.1 km/h (0 Bft) N -2.1 C -0.7 C
03.03.2002 22:00 -1.4 C 90 % 1022.0 hPa 0.0 l/m 0.3 km/h (0 Bft) O-SO -2.7 C -1.4 C
03.03.2002 23:00 -1.9 C 92 % 1022.0 hPa 0.0 l/m 0.9 km/h (0 Bft) O-SO -3.1 C -2.1 C
Min-Datum _ 03.03.02 28.02.02 27.02.02 - 25.02.02 - 28.02.02 03.03.02
_ Min-Zeit 23:46 15:12 22:05 - 17:51 - 15:15 23:13
Minimum _ -2.2 C 24 % 1006.3 hPa - 0.0 km/h (0 Bft) - -9.1 C -3.9 C
Max-Datum _ 26.02.02 27.02.02 03.03.02 27.02.02 26.02.02 - 27.02.02 26.02.02
_ Max-Zeit 12:19 22:05 22:00 22:47 11:04 - 06:44 12:19
Maximum _ 13.0 C 95 % 1022.0 hPa 3.6 l/m 56.8 km/h
W-NW (7 Bft)
- 7.0 C 13.0 C
Durchschnitt _ 5.3 C 78 % 1012.6 hPa #78.0 l/m 9.4 km/h (2 Bft) W-NW 1.5 C 4.1 C

Durchschnitt Minimum Temp.4.8 C
Durchschnitt Maximum Temp.5.8 C
© Kaiko 2002